In Rescue
 
Open Full Screen Window  High Contrast Mode
Wind Gusting 00 knots
07
November 27, 2020 11:09 PM EST
Weather Information
Wind Direction
  280 °
Wind Speed
  07 kt (8 mph)
Wind Gust
  00 kt (0 mph)
Altimeter
30.06 in
Visibility
10 SM
Temperature
05° C
41° F
Dewpoint
01° C
34° F
Humidity
76%
Sky Condition
Overcast @ 2,800 ft
MVFR

METAR KDUH 280409Z AUTO 28007KT 10SM OVC028 05/01 A3006 RMK AO2 T00500013

FAA Disclaimer: The data displayed is for advisory purposes only and is not to be used for flight planning or operations.